sensor_id;sensor_type;location;lat;lon;timestamp;pressure;altitude;pressure_sealevel;temperature;humidity
12722;BME280;6425;50.316;8.114;2023-10-31T00:00:00;972;;;11.5;96.9
12722;BME280;6425;50.316;8.114;2023-10-31T00:03:00;972;;;11.4;97.6
12722;BME280;6425;50.316;8.114;2023-10-31T00:06:00;972;;;11.4;98.3
12722;BME280;6425;50.316;8.114;2023-10-31T00:09:00;972;;;11.4;97.4
12722;BME280;6425;50.316;8.114;2023-10-31T00:12:00;973;;;11.4;97.7
12722;BME280;6425;50.316;8.114;2023-10-31T00:15:00;973;;;11.4;97.3
12722;BME280;6425;50.316;8.114;2023-10-31T00:18:00;973;;;11.4;97.8
12722;BME280;6425;50.316;8.114;2023-10-31T00:21:00;973;;;11.4;97.9
12722;BME280;6425;50.316;8.114;2023-10-31T00:24:00;973;;;11.3;98.5
12722;BME280;6425;50.316;8.114;2023-10-31T00:27:00;973;;;11.3;98.8
12722;BME280;6425;50.316;8.114;2023-10-31T00:30:00;973;;;11.3;98.4
12722;BME280;6425;50.316;8.114;2023-10-31T00:33:00;973;;;11.2;98.9
12722;BME280;6425;50.316;8.114;2023-10-31T00:36:00;973;;;11.1;99.3
12722;BME280;6425;50.316;8.114;2023-10-31T00:39:00;973;;;11.1;98.7
12722;BME280;6425;50.316;8.114;2023-10-31T00:42:00;973;;;11;99.1
12722;BME280;6425;50.316;8.114;2023-10-31T00:45:00;973;;;11;99.2
12722;BME280;6425;50.316;8.114;2023-10-31T00:48:00;973;;;10.9;99.7
12722;BME280;6425;50.316;8.114;2023-10-31T00:51:00;973;;;10.9;99.6
12722;BME280;6425;50.316;8.114;2023-10-31T00:54:00;973;;;10.9;99.4
12722;BME280;6425;50.316;8.114;2023-10-31T00:57:00;973;;;10.8;99.4
12722;BME280;6425;50.316;8.114;2023-10-31T01:00:00;973;;;10.8;99.5
12722;BME280;6425;50.316;8.114;2023-10-31T01:03:00;973;;;10.8;98.5
12722;BME280;6425;50.316;8.114;2023-10-31T01:06:00;973;;;10.8;97.8
12722;BME280;6425;50.316;8.114;2023-10-31T01:09:00;973;;;10.7;98.7
12722;BME280;6425;50.316;8.114;2023-10-31T01:12:00;973;;;10.6;99.7
12722;BME280;6425;50.316;8.114;2023-10-31T01:15:00;973;;;10.5;100
12722;BME280;6425;50.316;8.114;2023-10-31T01:18:00;973;;;10.5;100
12722;BME280;6425;50.316;8.114;2023-10-31T01:21:00;973;;;10.5;99.6
12722;BME280;6425;50.316;8.114;2023-10-31T01:24:00;973;;;10.5;99.5
12722;BME280;6425;50.316;8.114;2023-10-31T01:27:00;973;;;10.4;99.7
12722;BME280;6425;50.316;8.114;2023-10-31T01:30:00;973;;;10.5;98.7
12722;BME280;6425;50.316;8.114;2023-10-31T01:33:00;973;;;10.5;98
12722;BME280;6425;50.316;8.114;2023-10-31T01:36:00;973;;;10.6;96.5
12722;BME280;6425;50.316;8.114;2023-10-31T01:39:00;973;;;10.5;96.5
12722;BME280;6425;50.316;8.114;2023-10-31T01:42:00;973;;;10.4;97
12722;BME280;6425;50.316;8.114;2023-10-31T01:45:00;973;;;10.4;97.2
12722;BME280;6425;50.316;8.114;2023-10-31T01:48:00;973;;;10.3;97.5
12722;BME280;6425;50.316;8.114;2023-10-31T01:51:01;973;;;10.3;97.8
12722;BME280;6425;50.316;8.114;2023-10-31T01:54:00;973;;;10.2;98.6
12722;BME280;6425;50.316;8.114;2023-10-31T01:57:00;973;;;10.2;98.4
12722;BME280;6425;50.316;8.114;2023-10-31T02:00:00;973;;;10.1;99.5
12722;BME280;6425;50.316;8.114;2023-10-31T02:03:00;973;;;10;99.5
12722;BME280;6425;50.316;8.114;2023-10-31T02:06:00;973;;;10.1;99.4
12722;BME280;6425;50.316;8.114;2023-10-31T02:09:00;973;;;10.2;98.8
12722;BME280;6425;50.316;8.114;2023-10-31T02:12:00;973;;;10.2;98.3
12722;BME280;6425;50.316;8.114;2023-10-31T02:15:00;973;;;10.1;97.7
12722;BME280;6425;50.316;8.114;2023-10-31T02:18:00;973;;;10;97.7
12722;BME280;6425;50.316;8.114;2023-10-31T02:21:00;973;;;10;97.5
12722;BME280;6425;50.316;8.114;2023-10-31T02:24:00;973;;;10;96.8
12722;BME280;6425;50.316;8.114;2023-10-31T02:27:00;973;;;10;96.9
12722;BME280;6425;50.316;8.114;2023-10-31T02:30:00;973;;;9.9;97.8
12722;BME280;6425;50.316;8.114;2023-10-31T02:33:00;974;;;9.9;98.2
12722;BME280;6425;50.316;8.114;2023-10-31T02:36:00;974;;;9.8;98.2
12722;BME280;6425;50.316;8.114;2023-10-31T02:39:00;974;;;9.7;98.2
12722;BME280;6425;50.316;8.114;2023-10-31T02:42:00;974;;;9.7;97.7
12722;BME280;6425;50.316;8.114;2023-10-31T02:45:00;973;;;9.8;96.8
12722;BME280;6425;50.316;8.114;2023-10-31T02:48:00;974;;;9.9;95.3
12722;BME280;6425;50.316;8.114;2023-10-31T02:51:00;974;;;9.9;95
12722;BME280;6425;50.316;8.114;2023-10-31T02:54:00;974;;;9.8;95.3
12722;BME280;6425;50.316;8.114;2023-10-31T02:57:00;974;;;9.9;95.5
12722;BME280;6425;50.316;8.114;2023-10-31T03:00:00;974;;;9.8;95.9
12722;BME280;6425;50.316;8.114;2023-10-31T03:03:00;974;;;9.7;96.2
12722;BME280;6425;50.316;8.114;2023-10-31T03:06:00;974;;;9.7;96.1
12722;BME280;6425;50.316;8.114;2023-10-31T03:09:00;974;;;9.8;95.1
12722;BME280;6425;50.316;8.114;2023-10-31T03:12:00;974;;;9.9;94.2
12722;BME280;6425;50.316;8.114;2023-10-31T03:15:00;974;;;9.8;94.7
12722;BME280;6425;50.316;8.114;2023-10-31T03:18:00;974;;;9.8;94.8
12722;BME280;6425;50.316;8.114;2023-10-31T03:21:00;974;;;9.7;95.5
12722;BME280;6425;50.316;8.114;2023-10-31T03:24:00;974;;;9.7;95.4
12722;BME280;6425;50.316;8.114;2023-10-31T03:27:00;974;;;9.5;96.7
12722;BME280;6425;50.316;8.114;2023-10-31T03:30:00;974;;;9.4;97.8
12722;BME280;6425;50.316;8.114;2023-10-31T03:33:00;974;;;9.3;98.8
12722;BME280;6425;50.316;8.114;2023-10-31T03:36:00;974;;;9.2;99.3
12722;BME280;6425;50.316;8.114;2023-10-31T03:39:00;974;;;9.3;99.3
12722;BME280;6425;50.316;8.114;2023-10-31T03:42:00;974;;;9.3;99
12722;BME280;6425;50.316;8.114;2023-10-31T03:45:00;974;;;9.3;98.9
12722;BME280;6425;50.316;8.114;2023-10-31T03:48:00;974;;;9.2;99.5
12722;BME280;6425;50.316;8.114;2023-10-31T03:51:00;974;;;9.2;99.8
12722;BME280;6425;50.316;8.114;2023-10-31T03:54:00;974;;;9.2;99.4
12722;BME280;6425;50.316;8.114;2023-10-31T03:57:00;974;;;9.3;99.5
12722;BME280;6425;50.316;8.114;2023-10-31T04:00:00;974;;;9.2;99.4
12722;BME280;6425;50.316;8.114;2023-10-31T04:03:00;974;;;9.2;99.1
12722;BME280;6425;50.316;8.114;2023-10-31T04:06:00;974;;;9.2;99.6
12722;BME280;6425;50.316;8.114;2023-10-31T04:09:00;974;;;9.3;99.5
12722;BME280;6425;50.316;8.114;2023-10-31T04:12:00;974;;;9.4;99.4
12722;BME280;6425;50.316;8.114;2023-10-31T04:15:00;974;;;9.4;99.3
12722;BME280;6425;50.316;8.114;2023-10-31T04:18:00;974;;;9.5;99.5
12722;BME280;6425;50.316;8.114;2023-10-31T04:21:00;975;;;9.5;99.1
12722;BME280;6425;50.316;8.114;2023-10-31T04:24:00;975;;;9.6;99.1
12722;BME280;6425;50.316;8.114;2023-10-31T04:27:00;975;;;9.8;98.4
12722;BME280;6425;50.316;8.114;2023-10-31T04:30:00;975;;;9.8;98.3
12722;BME280;6425;50.316;8.114;2023-10-31T04:33:00;975;;;9.9;98.2
12722;BME280;6425;50.316;8.114;2023-10-31T04:36:00;975;;;10;97.7
12722;BME280;6425;50.316;8.114;2023-10-31T04:39:00;975;;;10;97.5
12722;BME280;6425;50.316;8.114;2023-10-31T04:42:00;975;;;9.9;98
12722;BME280;6425;50.316;8.114;2023-10-31T04:45:00;975;;;9.8;98.9
12722;BME280;6425;50.316;8.114;2023-10-31T04:48:00;975;;;9.8;99.6
12722;BME280;6425;50.316;8.114;2023-10-31T04:51:00;975;;;9.8;99.1
12722;BME280;6425;50.316;8.114;2023-10-31T04:54:00;975;;;9.8;99.5
12722;BME280;6425;50.316;8.114;2023-10-31T04:57:00;975;;;9.8;98.6
12722;BME280;6425;50.316;8.114;2023-10-31T05:00:00;975;;;9.8;98.8
12722;BME280;6425;50.316;8.114;2023-10-31T05:03:00;975;;;9.8;98.5
12722;BME280;6425;50.316;8.114;2023-10-31T05:06:00;975;;;9.8;99.2
12722;BME280;6425;50.316;8.114;2023-10-31T05:09:00;975;;;9.7;99.5
12722;BME280;6425;50.316;8.114;2023-10-31T05:12:00;975;;;9.8;99.6
12722;BME280;6425;50.316;8.114;2023-10-31T05:15:00;975;;;9.8;98.2
12722;BME280;6425;50.316;8.114;2023-10-31T05:18:00;975;;;9.8;98.1
12722;BME280;6425;50.316;8.114;2023-10-31T05:21:00;975;;;9.8;98.3
12722;BME280;6425;50.316;8.114;2023-10-31T05:24:00;975;;;9.8;98
12722;BME280;6425;50.316;8.114;2023-10-31T05:27:00;975;;;9.8;97.9
12722;BME280;6425;50.316;8.114;2023-10-31T05:30:00;975;;;9.8;98.1
12722;BME280;6425;50.316;8.114;2023-10-31T05:33:00;975;;;9.8;97.8
12722;BME280;6425;50.316;8.114;2023-10-31T05:36:00;975;;;9.8;97.4
12722;BME280;6425;50.316;8.114;2023-10-31T05:39:00;975;;;9.9;97.1
12722;BME280;6425;50.316;8.114;2023-10-31T05:42:00;975;;;9.9;97
12722;BME280;6425;50.316;8.114;2023-10-31T05:45:00;975;;;9.8;97.6
12722;BME280;6425;50.316;8.114;2023-10-31T05:48:00;975;;;9.8;97.6
12722;BME280;6425;50.316;8.114;2023-10-31T05:51:00;975;;;9.8;97.3
12722;BME280;6425;50.316;8.114;2023-10-31T05:54:00;975;;;9.8;97.4
12722;BME280;6425;50.316;8.114;2023-10-31T05:57:00;975;;;9.8;97.5
12722;BME280;6425;50.316;8.114;2023-10-31T06:00:00;975;;;9.7;98
12722;BME280;6425;50.316;8.114;2023-10-31T06:03:00;975;;;9.7;97.5
12722;BME280;6425;50.316;8.114;2023-10-31T06:06:00;975;;;9.7;98.2
12722;BME280;6425;50.316;8.114;2023-10-31T06:09:00;975;;;9.7;98.3
12722;BME280;6425;50.316;8.114;2023-10-31T06:12:00;975;;;9.7;98.3
12722;BME280;6425;50.316;8.114;2023-10-31T06:15:00;975;;;9.7;98.3
12722;BME280;6425;50.316;8.114;2023-10-31T06:18:00;975;;;9.7;98.4
12722;BME280;6425;50.316;8.114;2023-10-31T06:21:00;975;;;9.7;98.6
12722;BME280;6425;50.316;8.114;2023-10-31T06:24:00;976;;;9.6;98.3
12722;BME280;6425;50.316;8.114;2023-10-31T06:27:00;976;;;9.7;98.2
12722;BME280;6425;50.316;8.114;2023-10-31T06:30:00;976;;;9.7;98.2
12722;BME280;6425;50.316;8.114;2023-10-31T06:33:00;976;;;9.7;97.7
12722;BME280;6425;50.316;8.114;2023-10-31T06:36:00;976;;;9.6;98.4
12722;BME280;6425;50.316;8.114;2023-10-31T06:39:00;976;;;9.6;98.6
12722;BME280;6425;50.316;8.114;2023-10-31T06:42:01;976;;;9.6;98.7
12722;BME280;6425;50.316;8.114;2023-10-31T06:45:00;976;;;9.6;98.3
12722;BME280;6425;50.316;8.114;2023-10-31T06:48:00;976;;;9.7;97.6
12722;BME280;6425;50.316;8.114;2023-10-31T06:51:00;976;;;9.7;97.4
12722;BME280;6425;50.316;8.114;2023-10-31T06:54:00;976;;;9.6;97.5
12722;BME280;6425;50.316;8.114;2023-10-31T06:57:00;976;;;9.7;97.6
12722;BME280;6425;50.316;8.114;2023-10-31T07:00:00;976;;;9.7;97.6
12722;BME280;6425;50.316;8.114;2023-10-31T07:03:00;976;;;9.7;97.3
12722;BME280;6425;50.316;8.114;2023-10-31T07:06:00;976;;;9.8;97.7
12722;BME280;6425;50.316;8.114;2023-10-31T07:09:00;976;;;9.8;97.2
12722;BME280;6425;50.316;8.114;2023-10-31T07:12:00;976;;;9.8;97
12722;BME280;6425;50.316;8.114;2023-10-31T07:15:00;976;;;9.8;96.3
12722;BME280;6425;50.316;8.114;2023-10-31T07:18:00;977;;;9.8;96.2
12722;BME280;6425;50.316;8.114;2023-10-31T07:21:00;977;;;9.8;96
12722;BME280;6425;50.316;8.114;2023-10-31T07:24:00;976;;;9.9;94.7
12722;BME280;6425;50.316;8.114;2023-10-31T07:27:00;977;;;9.9;94.5
12722;BME280;6425;50.316;8.114;2023-10-31T07:30:00;977;;;9.7;95.6
12722;BME280;6425;50.316;8.114;2023-10-31T07:33:00;977;;;9.7;96.2
12722;BME280;6425;50.316;8.114;2023-10-31T07:36:00;977;;;9.8;96.3
12722;BME280;6425;50.316;8.114;2023-10-31T07:39:00;977;;;9.8;97.1
12722;BME280;6425;50.316;8.114;2023-10-31T07:42:00;977;;;9.8;96.7
12722;BME280;6425;50.316;8.114;2023-10-31T07:45:00;977;;;9.8;96.1
12722;BME280;6425;50.316;8.114;2023-10-31T07:48:00;977;;;9.9;96.7
12722;BME280;6425;50.316;8.114;2023-10-31T07:51:00;977;;;9.9;96.6
12722;BME280;6425;50.316;8.114;2023-10-31T07:54:00;977;;;9.9;96.4
12722;BME280;6425;50.316;8.114;2023-10-31T07:57:00;977;;;9.9;96.8
12722;BME280;6425;50.316;8.114;2023-10-31T08:00:00;977;;;9.7;98.8
12722;BME280;6425;50.316;8.114;2023-10-31T08:03:00;977;;;9.6;100
12722;BME280;6425;50.316;8.114;2023-10-31T08:06:00;977;;;9.6;100
12722;BME280;6425;50.316;8.114;2023-10-31T08:09:00;977;;;9.6;100
12722;BME280;6425;50.316;8.114;2023-10-31T08:12:00;977;;;9.5;100
12722;BME280;6425;50.316;8.114;2023-10-31T08:15:00;977;;;9.6;100
12722;BME280;6425;50.316;8.114;2023-10-31T08:18:00;977;;;9.6;100
12722;BME280;6425;50.316;8.114;2023-10-31T08:21:00;977;;;9.7;100
12722;BME280;6425;50.316;8.114;2023-10-31T08:24:00;977;;;9.7;100
12722;BME280;6425;50.316;8.114;2023-10-31T08:27:00;977;;;9.8;100
12722;BME280;6425;50.316;8.114;2023-10-31T08:30:00;977;;;9.9;99.5
12722;BME280;6425;50.316;8.114;2023-10-31T08:33:00;977;;;9.9;98
12722;BME280;6425;50.316;8.114;2023-10-31T08:36:00;977;;;9.9;97.7
12722;BME280;6425;50.316;8.114;2023-10-31T08:39:00;977;;;9.9;97.5
12722;BME280;6425;50.316;8.114;2023-10-31T08:42:00;977;;;9.9;97.1
12722;BME280;6425;50.316;8.114;2023-10-31T08:45:00;977;;;9.9;95.8
12722;BME280;6425;50.316;8.114;2023-10-31T08:48:00;977;;;9.9;95.3
12722;BME280;6425;50.316;8.114;2023-10-31T08:51:00;977;;;10;95.7
12722;BME280;6425;50.316;8.114;2023-10-31T08:54:00;977;;;10;95.3
12722;BME280;6425;50.316;8.114;2023-10-31T08:57:00;977;;;10;93.6
12722;BME280;6425;50.316;8.114;2023-10-31T09:00:00;978;;;10;93.7
12722;BME280;6425;50.316;8.114;2023-10-31T09:03:00;978;;;10;94.9
12722;BME280;6425;50.316;8.114;2023-10-31T09:06:00;978;;;10;92.9
12722;BME280;6425;50.316;8.114;2023-10-31T09:09:00;978;;;10;93
12722;BME280;6425;50.316;8.114;2023-10-31T09:12:00;978;;;10.1;93
12722;BME280;6425;50.316;8.114;2023-10-31T09:15:00;978;;;10.2;91.9
12722;BME280;6425;50.316;8.114;2023-10-31T09:18:00;978;;;10.3;91.9
12722;BME280;6425;50.316;8.114;2023-10-31T09:21:00;978;;;10.2;91.3
12722;BME280;6425;50.316;8.114;2023-10-31T09:24:00;978;;;10.2;90.9
12722;BME280;6425;50.316;8.114;2023-10-31T09:27:00;978;;;10.2;92
12722;BME280;6425;50.316;8.114;2023-10-31T09:30:00;978;;;10.2;90.5
12722;BME280;6425;50.316;8.114;2023-10-31T09:33:00;978;;;10.2;91.3
12722;BME280;6425;50.316;8.114;2023-10-31T09:36:00;978;;;10.2;91
12722;BME280;6425;50.316;8.114;2023-10-31T09:39:00;978;;;10.3;90.6
12722;BME280;6425;50.316;8.114;2023-10-31T09:42:00;978;;;10.3;90.6
12722;BME280;6425;50.316;8.114;2023-10-31T09:45:00;978;;;10.3;90.7
12722;BME280;6425;50.316;8.114;2023-10-31T09:48:00;978;;;10.4;89.3
12722;BME280;6425;50.316;8.114;2023-10-31T09:51:00;978;;;10.5;89.8
12722;BME280;6425;50.316;8.114;2023-10-31T09:54:01;978;;;10.5;89.8
12722;BME280;6425;50.316;8.114;2023-10-31T09:57:00;978;;;10.5;89.5
12722;BME280;6425;50.316;8.114;2023-10-31T10:00:00;978;;;10.6;89.8
12722;BME280;6425;50.316;8.114;2023-10-31T10:03:00;978;;;10.6;88
12722;BME280;6425;50.316;8.114;2023-10-31T10:06:01;978;;;10.5;87.2
12722;BME280;6425;50.316;8.114;2023-10-31T10:09:00;978;;;10.6;88.6
12722;BME280;6425;50.316;8.114;2023-10-31T10:12:00;978;;;10.5;87.9
12722;BME280;6425;50.316;8.114;2023-10-31T10:15:00;978;;;10.6;87.6
12722;BME280;6425;50.316;8.114;2023-10-31T10:18:00;978;;;10.8;87.8
12722;BME280;6425;50.316;8.114;2023-10-31T10:21:00;978;;;10.8;87.1
12722;BME280;6425;50.316;8.114;2023-10-31T10:24:00;978;;;10.9;88
12722;BME280;6425;50.316;8.114;2023-10-31T10:27:00;978;;;10.8;87.3
12722;BME280;6425;50.316;8.114;2023-10-31T10:30:00;978;;;10.9;87
12722;BME280;6425;50.316;8.114;2023-10-31T10:33:00;978;;;11;86.4
12722;BME280;6425;50.316;8.114;2023-10-31T10:36:00;978;;;11.1;85.4
12722;BME280;6425;50.316;8.114;2023-10-31T10:39:00;978;;;11.1;84.5
12722;BME280;6425;50.316;8.114;2023-10-31T10:42:00;978;;;11;84.7
12722;BME280;6425;50.316;8.114;2023-10-31T10:45:01;978;;;10.8;85.7
12722;BME280;6425;50.316;8.114;2023-10-31T10:48:00;978;;;10.7;85.6
12722;BME280;6425;50.316;8.114;2023-10-31T10:51:02;978;;;10.7;84.9
12722;BME280;6425;50.316;8.114;2023-10-31T10:54:01;978;;;10.7;84.7
12722;BME280;6425;50.316;8.114;2023-10-31T10:57:03;978;;;10.8;85.3
12722;BME280;6425;50.316;8.114;2023-10-31T11:00:02;978;;;10.9;85.2
12722;BME280;6425;50.316;8.114;2023-10-31T11:03:00;978;;;11;84.4
12722;BME280;6425;50.316;8.114;2023-10-31T11:06:00;978;;;11.1;82.4
12722;BME280;6425;50.316;8.114;2023-10-31T11:09:00;978;;;11.2;82.9
12722;BME280;6425;50.316;8.114;2023-10-31T11:12:00;978;;;11.3;83.8
12722;BME280;6425;50.316;8.114;2023-10-31T11:15:00;978;;;11.3;82
12722;BME280;6425;50.316;8.114;2023-10-31T11:18:00;978;;;11.2;81.9
12722;BME280;6425;50.316;8.114;2023-10-31T11:21:00;978;;;11.3;81.5
12722;BME280;6425;50.316;8.114;2023-10-31T11:24:00;978;;;11.4;81.5
12722;BME280;6425;50.316;8.114;2023-10-31T11:27:00;978;;;11.2;79.8
12722;BME280;6425;50.316;8.114;2023-10-31T11:30:00;978;;;11.5;82
12722;BME280;6425;50.316;8.114;2023-10-31T11:33:00;978;;;11.4;81
12722;BME280;6425;50.316;8.114;2023-10-31T11:36:00;978;;;11.3;81.2
12722;BME280;6425;50.316;8.114;2023-10-31T11:39:09;978;;;11.1;80.4
12722;BME280;6425;50.316;8.114;2023-10-31T11:42:00;978;;;11.3;81.1
12722;BME280;6425;50.316;8.114;2023-10-31T11:45:00;978;;;11.1;80.9
12722;BME280;6425;50.316;8.114;2023-10-31T11:48:00;978;;;11.2;81
12722;BME280;6425;50.316;8.114;2023-10-31T11:51:00;978;;;11.3;82.2
12722;BME280;6425;50.316;8.114;2023-10-31T11:54:00;978;;;11.4;81.5
12722;BME280;6425;50.316;8.114;2023-10-31T11:57:00;979;;;11.3;82.2
12722;BME280;6425;50.316;8.114;2023-10-31T12:00:00;978;;;11.2;81.1
12722;BME280;6425;50.316;8.114;2023-10-31T12:03:00;979;;;11.4;81.3
12722;BME280;6425;50.316;8.114;2023-10-31T12:06:00;979;;;11.4;80.5
12722;BME280;6425;50.316;8.114;2023-10-31T12:09:00;979;;;11.9;81.8
12722;BME280;6425;50.316;8.114;2023-10-31T12:12:00;979;;;11.7;78
12722;BME280;6425;50.316;8.114;2023-10-31T12:15:04;979;;;11.7;78
12722;BME280;6425;50.316;8.114;2023-10-31T12:18:00;979;;;11.5;77.7
12722;BME280;6425;50.316;8.114;2023-10-31T12:21:00;979;;;11.4;77.4
12722;BME280;6425;50.316;8.114;2023-10-31T12:24:01;979;;;11.3;78
12722;BME280;6425;50.316;8.114;2023-10-31T12:27:00;979;;;11.3;78
12722;BME280;6425;50.316;8.114;2023-10-31T12:30:00;979;;;11.2;80.1
12722;BME280;6425;50.316;8.114;2023-10-31T12:33:00;979;;;11.3;80.2
12722;BME280;6425;50.316;8.114;2023-10-31T12:36:00;979;;;11.3;78.8
12722;BME280;6425;50.316;8.114;2023-10-31T12:39:00;979;;;11.4;79.3
12722;BME280;6425;50.316;8.114;2023-10-31T12:42:00;979;;;11.5;78.5
12722;BME280;6425;50.316;8.114;2023-10-31T12:45:00;979;;;11.7;79.1
12722;BME280;6425;50.316;8.114;2023-10-31T12:48:00;979;;;11.6;79
12722;BME280;6425;50.316;8.114;2023-10-31T12:51:07;979;;;11.6;79.5
12722;BME280;6425;50.316;8.114;2023-10-31T12:54:00;979;;;11.7;78.2
12722;BME280;6425;50.316;8.114;2023-10-31T12:57:00;979;;;11.7;77.7
12722;BME280;6425;50.316;8.114;2023-10-31T13:00:00;979;;;11.7;78.2
12722;BME280;6425;50.316;8.114;2023-10-31T13:03:01;979;;;12;77.9
12722;BME280;6425;50.316;8.114;2023-10-31T13:06:12;979;;;12.2;75.2
12722;BME280;6425;50.316;8.114;2023-10-31T13:09:00;979;;;12.3;75.5
12722;BME280;6425;50.316;8.114;2023-10-31T13:12:00;979;;;12.4;76.8
12722;BME280;6425;50.316;8.114;2023-10-31T13:15:00;979;;;12.3;76.6
12722;BME280;6425;50.316;8.114;2023-10-31T13:18:00;979;;;12.3;75.2
12722;BME280;6425;50.316;8.114;2023-10-31T13:21:00;979;;;12.2;75.8
12722;BME280;6425;50.316;8.114;2023-10-31T13:24:00;979;;;12.2;75.5
12722;BME280;6425;50.316;8.114;2023-10-31T13:27:00;979;;;12;74.7
12722;BME280;6425;50.316;8.114;2023-10-31T13:30:00;979;;;11.9;74.6
12722;BME280;6425;50.316;8.114;2023-10-31T13:33:00;979;;;12.2;73.1
12722;BME280;6425;50.316;8.114;2023-10-31T13:36:00;979;;;12.5;72.8
12722;BME280;6425;50.316;8.114;2023-10-31T13:39:00;979;;;12.6;74
12722;BME280;6425;50.316;8.114;2023-10-31T13:42:00;979;;;12.6;71.6
12722;BME280;6425;50.316;8.114;2023-10-31T13:45:00;979;;;12.4;70.6
12722;BME280;6425;50.316;8.114;2023-10-31T13:48:00;979;;;12.3;71.6
12722;BME280;6425;50.316;8.114;2023-10-31T13:51:00;979;;;12.6;72
12722;BME280;6425;50.316;8.114;2023-10-31T13:54:00;979;;;12.6;69.9
12722;BME280;6425;50.316;8.114;2023-10-31T13:57:00;979;;;12.6;70.8
12722;BME280;6425;50.316;8.114;2023-10-31T14:00:00;979;;;12.5;73.1
12722;BME280;6425;50.316;8.114;2023-10-31T14:03:00;979;;;12.5;71.5
12722;BME280;6425;50.316;8.114;2023-10-31T14:06:00;979;;;12.6;71.2
12722;BME280;6425;50.316;8.114;2023-10-31T14:09:00;979;;;12.8;68.9
12722;BME280;6425;50.316;8.114;2023-10-31T14:12:00;979;;;13.1;69.6
12722;BME280;6425;50.316;8.114;2023-10-31T14:15:00;979;;;13.2;66.7
12722;BME280;6425;50.316;8.114;2023-10-31T14:18:00;979;;;13.1;67.6
12722;BME280;6425;50.316;8.114;2023-10-31T14:21:00;979;;;13;67
12722;BME280;6425;50.316;8.114;2023-10-31T14:24:00;979;;;12.7;68.6
12722;BME280;6425;50.316;8.114;2023-10-31T14:27:00;979;;;12.4;68.8
12722;BME280;6425;50.316;8.114;2023-10-31T14:30:00;979;;;12.3;70.8
12722;BME280;6425;50.316;8.114;2023-10-31T14:33:00;979;;;12.3;70.5
12722;BME280;6425;50.316;8.114;2023-10-31T14:36:00;979;;;12.4;69.9
12722;BME280;6425;50.316;8.114;2023-10-31T14:39:00;979;;;12.6;70
12722;BME280;6425;50.316;8.114;2023-10-31T14:42:00;980;;;12.8;70.2
12722;BME280;6425;50.316;8.114;2023-10-31T14:45:00;980;;;12.8;72
12722;BME280;6425;50.316;8.114;2023-10-31T14:48:00;979;;;12.6;72.9
12722;BME280;6425;50.316;8.114;2023-10-31T14:51:00;979;;;12.4;73.5
12722;BME280;6425;50.316;8.114;2023-10-31T14:54:00;980;;;12.3;73.2
12722;BME280;6425;50.316;8.114;2023-10-31T14:57:00;979;;;12.2;72.9
12722;BME280;6425;50.316;8.114;2023-10-31T15:00:00;980;;;12.2;74.4
12722;BME280;6425;50.316;8.114;2023-10-31T15:03:00;980;;;12;76.9
12722;BME280;6425;50.316;8.114;2023-10-31T15:06:00;980;;;11.7;77.4
12722;BME280;6425;50.316;8.114;2023-10-31T15:09:00;980;;;11.5;78.3
12722;BME280;6425;50.316;8.114;2023-10-31T15:12:00;980;;;11.4;78.6
12722;BME280;6425;50.316;8.114;2023-10-31T15:15:00;980;;;11.4;78.2
12722;BME280;6425;50.316;8.114;2023-10-31T15:18:00;980;;;11.3;79
12722;BME280;6425;50.316;8.114;2023-10-31T15:21:00;980;;;11.3;78.9
12722;BME280;6425;50.316;8.114;2023-10-31T15:24:00;980;;;11.2;80
12722;BME280;6425;50.316;8.114;2023-10-31T15:27:00;980;;;11.2;80.9
12722;BME280;6425;50.316;8.114;2023-10-31T15:30:00;980;;;11.1;82.1
12722;BME280;6425;50.316;8.114;2023-10-31T15:33:00;980;;;11.2;82.2
12722;BME280;6425;50.316;8.114;2023-10-31T15:36:00;980;;;11.3;81.4
12722;BME280;6425;50.316;8.114;2023-10-31T15:39:00;980;;;11.1;82.5
12722;BME280;6425;50.316;8.114;2023-10-31T15:42:00;980;;;11.1;83.2
12722;BME280;6425;50.316;8.114;2023-10-31T15:45:00;980;;;11.2;82.9
12722;BME280;6425;50.316;8.114;2023-10-31T15:48:00;980;;;11.4;81.8
12722;BME280;6425;50.316;8.114;2023-10-31T15:51:00;980;;;11.3;82.1
12722;BME280;6425;50.316;8.114;2023-10-31T15:54:00;980;;;11.5;81.2
12722;BME280;6425;50.316;8.114;2023-10-31T15:57:00;980;;;11.7;79.5
12722;BME280;6425;50.316;8.114;2023-10-31T16:00:00;980;;;11.8;78.4
12722;BME280;6425;50.316;8.114;2023-10-31T16:03:00;980;;;12.1;77.1
12722;BME280;6425;50.316;8.114;2023-10-31T16:06:00;980;;;12.4;75.2
12722;BME280;6425;50.316;8.114;2023-10-31T16:09:00;980;;;12.6;74.1
12722;BME280;6425;50.316;8.114;2023-10-31T16:12:00;980;;;12.9;72.8
12722;BME280;6425;50.316;8.114;2023-10-31T16:15:00;981;;;12.9;72.3
12722;BME280;6425;50.316;8.114;2023-10-31T16:18:00;981;;;12.9;72.3
12722;BME280;6425;50.316;8.114;2023-10-31T16:21:00;980;;;13.2;70.9
12722;BME280;6425;50.316;8.114;2023-10-31T16:24:00;981;;;13.2;71.5
12722;BME280;6425;50.316;8.114;2023-10-31T16:27:00;981;;;13;72
12722;BME280;6425;50.316;8.114;2023-10-31T16:30:00;981;;;13.1;71.8
12722;BME280;6425;50.316;8.114;2023-10-31T16:33:00;981;;;13;72.1
12722;BME280;6425;50.316;8.114;2023-10-31T16:36:00;981;;;12.8;73
12722;BME280;6425;50.316;8.114;2023-10-31T16:39:00;981;;;12.1;75.8
12722;BME280;6425;50.316;8.114;2023-10-31T16:42:00;981;;;11.8;78.4
12722;BME280;6425;50.316;8.114;2023-10-31T16:45:00;981;;;11.3;81
12722;BME280;6425;50.316;8.114;2023-10-31T16:48:01;981;;;11.1;82.9
12722;BME280;6425;50.316;8.114;2023-10-31T16:51:00;981;;;11;84.2
12722;BME280;6425;50.316;8.114;2023-10-31T16:54:00;981;;;11.1;84.4
12722;BME280;6425;50.316;8.114;2023-10-31T16:57:00;981;;;11.2;84.2
12722;BME280;6425;50.316;8.114;2023-10-31T17:00:00;981;;;11.3;83.8
12722;BME280;6425;50.316;8.114;2023-10-31T17:03:00;981;;;11.3;84.1
12722;BME280;6425;50.316;8.114;2023-10-31T17:06:00;981;;;11.3;84.3
12722;BME280;6425;50.316;8.114;2023-10-31T17:09:00;981;;;11.3;84.3
12722;BME280;6425;50.316;8.114;2023-10-31T17:12:00;981;;;11.3;84.5
12722;BME280;6425;50.316;8.114;2023-10-31T17:15:00;981;;;11.3;84.5
12722;BME280;6425;50.316;8.114;2023-10-31T17:18:00;981;;;11.3;84.5
12722;BME280;6425;50.316;8.114;2023-10-31T17:21:00;981;;;11.3;84.9
12722;BME280;6425;50.316;8.114;2023-10-31T17:24:00;981;;;11.3;84.6
12722;BME280;6425;50.316;8.114;2023-10-31T17:27:00;981;;;11.3;84.5
12722;BME280;6425;50.316;8.114;2023-10-31T17:30:00;981;;;11.4;84.6
12722;BME280;6425;50.316;8.114;2023-10-31T17:33:00;981;;;11.2;84.5
12722;BME280;6425;50.316;8.114;2023-10-31T17:36:00;981;;;11.5;84.8
12722;BME280;6425;50.316;8.114;2023-10-31T17:39:00;981;;;11.5;84.6
12722;BME280;6425;50.316;8.114;2023-10-31T17:42:00;981;;;11.4;84.5
12722;BME280;6425;50.316;8.114;2023-10-31T17:45:00;981;;;11.4;84.3
12722;BME280;6425;50.316;8.114;2023-10-31T17:48:00;981;;;11.4;84.5
12722;BME280;6425;50.316;8.114;2023-10-31T17:51:00;981;;;11.4;84.2
12722;BME280;6425;50.316;8.114;2023-10-31T17:54:00;981;;;11.3;85.2
12722;BME280;6425;50.316;8.114;2023-10-31T17:57:00;981;;;11.3;85.6